Time;durP1;ratioP1;P1;durP2;ratioP2;P2;SDS_P1;SDS_P2;PMS_P1;PMS_P2;Temp;Humidity;BMP_temperature;BMP_pressure;BME280_temperature;BME280_humidity;BME280_pressure;Samples;Min_cycle;Max_cycle;Signal;HPM_P1;HPM_P2
2022/11/12 07:23:36;;;;;;;17.25;8.00;;;;;;;8.44;69.18;98034.69;2099929;27;20562;-63
2022/11/12 07:24:38;;;;;;;14.43;8.15;;;;;;;8.50;68.22;98018.13;2094210;28;20234;-63
2022/11/12 07:25:39;;;;;;;14.15;8.35;;;;;;;8.18;68.10;98029.81;2097021;28;20221;-63
2022/11/12 07:26:41;;;;;;;15.13;7.88;;;;;;;7.80;68.49;98026.81;2098918;28;20227;-63
2022/11/12 07:27:48;;;;;;;19.23;8.60;;;;;;;7.80;68.85;98034.59;2076317;28;20218;-63
2022/11/12 07:28:51;;;;;;;10.38;6.70;;;;;;;7.55;70.16;98033.16;2076742;28;20228;-63
2022/11/12 07:29:56;;;;;;;19.33;8.32;;;;;;;7.32;71.84;98022.09;2080534;28;20284;-63
2022/11/12 07:31:00;;;;;;;15.13;8.13;;;;;;;6.76;72.57;98019.13;2077808;28;20208;-63
2022/11/12 07:32:02;;;;;;;14.18;8.05;;;;;;;7.11;72.85;98025.78;2081145;28;20196;-64
2022/11/12 07:33:03;;;;;;;13.93;8.40;;;;;;;7.48;72.46;98032.38;2086507;28;20235;-64
2022/11/12 07:34:05;;;;;;;17.75;9.48;;;;;;;7.91;70.25;98036.22;2089545;28;20230;-63
2022/11/12 07:35:10;;;;;;;13.40;7.72;;;;;;;8.21;68.47;98008.94;2085918;28;20280;-64
2022/11/12 07:36:17;;;;;;;13.65;7.45;;;;;;;7.30;71.10;98038.59;2084392;28;20370;-63
2022/11/12 07:37:18;;;;;;;11.35;7.85;;;;;;;6.56;73.21;98042.63;2091066;28;20295;-64
2022/11/12 07:38:20;;;;;;;11.57;8.15;;;;;;;6.77;72.49;98017.41;2088609;28;20236;-64
2022/11/12 07:39:21;;;;;;;12.10;7.93;;;;;;;6.69;73.79;98035.59;2086940;28;20670;-62
2022/11/12 07:40:22;;;;;;;39.20;21.48;;;;;;;7.12;73.86;98032.69;2089303;28;20294;-64
2022/11/12 07:41:24;;;;;;;42.30;20.63;;;;;;;7.63;72.93;98036.53;2086244;28;20228;-64
2022/11/12 07:42:25;;;;;;;46.53;24.08;;;;;;;7.85;71.28;98029.34;2086008;28;20299;-65
2022/11/12 07:43:28;;;;;;;26.60;15.20;;;;;;;7.94;71.70;98039.66;2085291;28;20352;-65
2022/11/12 07:44:30;;;;;;;22.88;11.50;;;;;;;8.29;71.64;98037.47;2090504;28;20657;-65
2022/11/12 07:45:31;;;;;;;15.57;10.25;;;;;;;8.50;70.21;98032.00;2086064;28;20240;-65
2022/11/12 07:46:33;;;;;;;14.45;7.68;;;;;;;8.77;68.75;98026.41;2087676;28;20762;-65
2022/11/12 07:47:34;;;;;;;13.20;8.30;;;;;;;9.11;68.65;98026.72;2086229;28;20220;-65
2022/11/12 07:48:37;;;;;;;17.55;8.85;;;;;;;9.44;67.03;98029.63;2106866;28;20202;-65
2022/11/12 07:49:38;;;;;;;17.65;9.73;;;;;;;9.28;67.65;98026.44;2104121;28;20281;-65
2022/11/12 07:50:43;;;;;;;22.73;10.90;;;;;;;8.90;68.43;98022.75;2084546;28;20804;-65
2022/11/12 07:51:44;;;;;;;18.90;11.13;;;;;;;9.00;68.14;98002.59;2083167;28;20228;-65
2022/11/12 07:52:45;;;;;;;20.02;11.07;;;;;;;9.37;68.11;98012.41;2092264;28;20299;-65
2022/11/12 07:53:49;;;;;;;17.25;10.60;;;;;;;10.08;66.76;98012.75;2089719;28;20242;-65
2022/11/12 07:54:56;;;;;;;19.13;9.57;;;;;;;10.16;65.85;98013.47;2089481;28;20201;-65
2022/11/12 07:56:00;;;;;;;14.05;7.97;;;;;;;10.44;65.23;98024.19;2089247;28;20238;-65
2022/11/12 07:57:01;;;;;;;13.10;6.97;;;;;;;11.09;63.88;98014.00;2085294;28;20679;-65
2022/11/12 07:58:03;;;;;;;11.90;6.72;;;;;;;11.54;62.61;98021.56;2089484;28;20239;-65
2022/11/12 07:59:08;;;;;;;8.55;5.30;;;;;;;11.92;59.39;98019.63;2090695;28;20210;-65
2022/11/12 08:00:11;;;;;;;9.82;4.95;;;;;;;11.28;60.55;98011.75;2088821;28;20283;-65
2022/11/12 08:01:24;;;;;;;10.93;6.45;;;;;;;12.07;58.60;98007.03;2088073;28;20196;-64
2022/11/12 08:02:25;;;;;;;9.52;6.43;;;;;;;12.35;58.15;98004.44;2087175;28;20726;-65
2022/11/12 08:03:27;;;;;;;10.05;6.97;;;;;;;11.49;59.06;98012.97;2088168;28;20236;-65
2022/11/12 08:04:31;;;;;;;10.32;6.22;;;;;;;11.65;59.09;98017.78;2088847;28;20292;-65
2022/11/12 08:05:33;;;;;;;11.32;6.72;;;;;;;12.10;57.35;98017.44;2085623;28;20248;-65
2022/11/12 08:06:35;;;;;;;12.32;7.65;;;;;;;12.34;56.96;98018.47;2089125;28;20338;-62
2022/11/12 08:07:36;;;;;;;24.02;15.18;;;;;;;12.07;57.69;98025.38;2087861;28;20224;-63
2022/11/12 08:08:38;;;;;;;10.20;6.15;;;;;;;11.14;59.29;98025.19;2087154;28;20193;-63
2022/11/12 08:09:39;;;;;;;10.05;6.70;;;;;;;10.62;60.92;98022.06;2086248;28;20201;-65
2022/11/12 08:10:41;;;;;;;10.07;6.40;;;;;;;9.99;62.82;98028.63;2087350;28;20229;-65
2022/11/12 08:11:42;;;;;;;9.95;6.78;;;;;;;10.13;64.33;98023.97;2089217;28;20716;-65
2022/11/12 08:12:44;;;;;;;8.32;5.10;;;;;;;10.11;64.18;98029.22;2090090;28;20252;-65
2022/11/12 08:13:45;;;;;;;8.07;5.57;;;;;;;10.93;62.37;98030.06;2089218;28;20667;-65
2022/11/12 08:14:47;;;;;;;7.75;4.97;;;;;;;11.43;60.17;98024.44;2085640;28;20224;-65
2022/11/12 08:15:48;;;;;;;11.40;5.70;;;;;;;10.80;61.10;98004.25;2083281;28;20282;-65
2022/11/12 08:16:52;;;;;;;8.80;5.15;;;;;;;10.56;62.86;98027.44;2086873;28;20197;-65
2022/11/12 08:17:54;;;;;;;6.82;4.88;;;;;;;10.95;62.51;98011.72;2089301;28;20291;-65
2022/11/12 08:18:55;;;;;;;15.70;5.50;;;;;;;11.45;61.05;98019.16;2089914;28;20609;-65
2022/11/12 08:19:57;;;;;;;9.15;4.95;;;;;;;12.09;60.13;98026.19;2086817;28;20204;-65
2022/11/12 08:20:59;;;;;;;9.25;5.20;;;;;;;12.45;59.17;98020.75;2084119;28;20706;-65
2022/11/12 08:22:01;;;;;;;8.85;6.15;;;;;;;13.31;57.14;98024.16;2084811;28;20197;-65
2022/11/12 08:23:02;;;;;;;8.23;5.88;;;;;;;13.76;55.59;98012.97;2090392;28;20901;-65
2022/11/12 08:24:05;;;;;;;7.35;5.50;;;;;;;13.40;55.82;98018.63;2088259;28;20310;-65
2022/11/12 08:25:07;;;;;;;7.15;4.95;;;;;;;12.22;59.64;98022.28;2088708;28;20196;-66
2022/11/12 08:26:14;;;;;;;8.45;5.53;;;;;;;11.10;60.72;97971.28;2088893;28;20279;-66
2022/11/12 08:27:15;;;;;;;7.10;5.30;;;;;;;11.49;61.58;98030.41;2085120;28;20224;-66
2022/11/12 08:28:16;;;;;;;11.77;6.07;;;;;;;11.88;60.98;98025.00;2086050;28;20683;-66
2022/11/12 08:29:18;;;;;;;9.55;6.40;;;;;;;12.64;59.54;98013.19;2089472;28;20286;-66
2022/11/12 08:30:19;;;;;;;12.05;5.90;;;;;;;12.71;58.71;98029.59;2086587;28;20290;-66
2022/11/12 08:31:21;;;;;;;7.20;4.85;;;;;;;13.59;57.11;98024.09;2084841;28;20229;-66
2022/11/12 08:32:23;;;;;;;7.85;5.10;;;;;;;14.50;54.20;98009.38;2087408;28;20227;-66
2022/11/12 08:33:25;;;;;;;7.88;4.72;;;;;;;14.80;53.48;98003.88;2087874;28;20200;-66
2022/11/12 08:34:26;;;;;;;7.80;4.70;;;;;;;14.85;52.96;97987.00;2083778;28;20230;-66
2022/11/12 08:35:29;;;;;;;8.10;4.13;;;;;;;13.80;55.41;97963.84;2077748;28;20661;-66
2022/11/12 08:36:31;;;;;;;7.82;4.65;;;;;;;15.31;52.24;98021.06;2077364;28;20283;-66
2022/11/12 08:37:32;;;;;;;7.43;4.65;;;;;;;16.65;50.00;98029.22;2076516;28;20807;-66
2022/11/12 08:38:34;;;;;;;7.22;4.88;;;;;;;17.47;47.68;98027.91;2083776;28;20287;-66
2022/11/12 08:39:35;;;;;;;4.80;3.97;;;;;;;17.77;47.74;98024.63;2083416;28;20203;-66
2022/11/12 08:40:37;;;;;;;7.53;4.90;;;;;;;18.06;46.58;98027.56;2084611;28;20192;-66
2022/11/12 08:41:43;;;;;;;7.40;5.15;;;;;;;17.76;46.96;98005.28;2085328;28;20232;-66
2022/11/12 08:42:44;;;;;;;9.65;4.90;;;;;;;17.54;46.52;98025.81;2077662;28;20260;-66
2022/11/12 08:43:45;;;;;;;8.23;5.85;;;;;;;15.71;50.43;98010.59;2084551;28;20204;-66
2022/11/12 08:44:47;;;;;;;9.45;6.20;;;;;;;16.79;48.80;98015.38;2086922;28;20295;-66
2022/11/12 08:45:49;;;;;;;8.65;6.40;;;;;;;17.35;47.35;98029.38;2084445;28;20229;-66
2022/11/12 08:46:50;;;;;;;9.88;5.68;;;;;;;17.83;46.06;98021.66;2081986;28;20220;-66
2022/11/12 08:47:52;;;;;;;7.25;5.05;;;;;;;16.63;48.46;98023.16;2083188;28;20296;-66
2022/11/12 08:48:53;;;;;;;7.78;5.68;;;;;;;16.43;48.52;98018.81;2085175;28;20197;-65
2022/11/12 08:49:54;;;;;;;9.65;7.25;;;;;;;15.55;51.83;98028.81;2084527;28;20735;-65
2022/11/12 08:50:57;;;;;;;9.02;5.85;;;;;;;16.12;51.07;98022.88;2078701;28;20235;-64
2022/11/12 08:51:58;;;;;;;83.40;49.13;;;;;;;17.73;48.70;98031.84;2077823;28;20302;-64
2022/11/12 08:53:08;;;;;;;11.90;6.10;;;;;;;17.26;48.29;98008.72;2082385;28;20208;-65
2022/11/12 08:54:09;;;;;;;9.93;5.97;;;;;;;17.62;48.66;98023.63;2080754;28;20205;-65
2022/11/12 08:55:11;;;;;;;5.70;4.60;;;;;;;17.54;48.24;98015.25;2080827;28;20208;-65
2022/11/12 08:56:12;;;;;;;6.55;4.68;;;;;;;17.66;47.53;98019.03;2081664;28;20208;-65
2022/11/12 08:57:14;;;;;;;7.25;5.10;;;;;;;17.51;48.10;98007.47;2081041;28;20245;-65
2022/11/12 08:58:16;;;;;;;6.75;4.75;;;;;;;17.15;49.45;98014.53;2076613;28;20197;-65
2022/11/12 08:59:17;;;;;;;7.55;4.90;;;;;;;16.70;49.76;98003.50;2075097;28;20304;-65
2022/11/12 09:00:22;;;;;;;6.35;4.85;;;;;;;16.93;49.67;98007.69;2082067;28;20239;-65
2022/11/12 09:01:23;;;;;;;6.88;4.38;;;;;;;16.90;49.31;98014.84;2084938;28;20718;-64
2022/11/12 09:02:25;;;;;;;5.85;4.50;;;;;;;17.70;48.03;97999.44;2084188;28;20623;-65
2022/11/12 09:03:26;;;;;;;6.82;4.53;;;;;;;18.33;47.23;98025.22;2085023;28;20284;-66
2022/11/12 09:04:28;;;;;;;7.18;5.00;;;;;;;17.04;49.79;98017.72;2084607;28;20220;-65
2022/11/12 09:05:29;;;;;;;6.53;4.53;;;;;;;15.98;52.68;98018.22;2087503;28;20691;-66
2022/11/12 09:06:31;;;;;;;5.95;4.18;;;;;;;15.99;53.39;98009.41;2082980;28;20292;-65
2022/11/12 09:07:32;;;;;;;5.82;4.20;;;;;;;15.63;54.53;98010.06;2076793;28;20408;-66
2022/11/12 09:08:53;;;;;;;7.07;4.80;;;;;;;15.44;54.69;98010.88;2079746;28;20558;-66
2022/11/12 09:09:54;;;;;;;13.13;4.40;;;;;;;16.35;52.71;98018.34;2082485;28;20249;-68
2022/11/12 09:10:56;;;;;;;6.38;4.07;;;;;;;16.88;51.20;98006.19;2083550;28;20236;-68
2022/11/12 09:11:58;;;;;;;5.55;4.35;;;;;;;17.18;50.79;98019.69;2085317;28;20686;-67
2022/11/12 09:13:00;;;;;;;8.45;4.93;;;;;;;16.96;50.87;98018.09;2081757;28;20337;-67
2022/11/12 09:14:01;;;;;;;5.80;4.38;;;;;;;17.05;50.75;98016.78;2082701;28;20232;-68
2022/11/12 09:15:05;;;;;;;9.52;5.38;;;;;;;16.40;52.21;98017.19;2081063;28;20190;-67
2022/11/12 09:16:26;;;;;;;5.80;4.68;;;;;;;16.92;51.17;98015.69;2076205;28;20615;-67
2022/11/12 09:17:34;;;;;;;6.32;4.38;;;;;;;17.34;50.31;98006.53;2081035;28;20726;-68
2022/11/12 09:18:35;;;;;;;7.75;5.32;;;;;;;17.49;49.09;97994.34;2081113;28;20288;-68
2022/11/12 09:19:37;;;;;;;7.90;5.35;;;;;;;17.10;50.01;97990.16;2082207;28;20291;-68
2022/11/12 09:20:43;;;;;;;6.53;4.45;;;;;;;16.73;51.12;98007.78;2082308;28;20192;-68
2022/11/12 09:21:45;;;;;;;6.93;5.35;;;;;;;18.10;49.27;98013.25;2083131;28;20204;-68
2022/11/12 09:22:51;;;;;;;11.90;5.57;;;;;;;19.92;44.93;97995.91;2080805;28;20258;-68
2022/11/12 09:23:53;;;;;;;8.68;6.05;;;;;;;20.34;44.05;98003.00;2083231;28;20251;-65
2022/11/12 09:24:54;;;;;;;14.32;6.32;;;;;;;19.62;44.73;98005.59;2084206;28;20345;-66
2022/11/12 09:25:56;;;;;;;8.35;5.13;;;;;;;20.13;44.80;98009.66;2082787;28;20211;-65
2022/11/12 09:26:58;;;;;;;6.03;4.47;;;;;;;18.46;46.92;97995.47;2079633;28;20232;-65
2022/11/12 09:28:15;;;;;;;7.70;4.32;;;;;;;17.41;49.77;98005.31;2094609;28;20199;-65
2022/11/12 09:29:16;;;;;;;9.63;5.13;;;;;;;18.02;49.46;98005.72;2095481;28;20670;-65
2022/11/12 09:30:17;;;;;;;8.30;5.22;;;;;;;18.66;47.90;98007.56;2082746;28;20530;-64
2022/11/12 09:31:19;;;;;;;6.57;4.60;;;;;;;19.42;47.12;98004.97;2083990;28;20227;-64
2022/11/12 09:32:21;;;;;;;7.10;4.65;;;;;;;20.08;45.66;98004.63;2080881;28;20297;-64
2022/11/12 09:33:25;;;;;;;6.80;4.55;;;;;;;20.56;44.42;97998.97;2078681;28;20288;-64
2022/11/12 09:34:27;;;;;;;6.38;4.82;;;;;;;19.13;46.11;98004.03;2083092;28;20236;-64
2022/11/12 09:35:29;;;;;;;7.70;4.78;;;;;;;18.50;48.28;98002.28;2080992;28;20229;-64
2022/11/12 09:36:30;;;;;;;7.53;3.83;;;;;;;18.10;48.91;97989.47;2079753;28;20207;-64
2022/11/12 09:37:39;;;;;;;8.20;3.80;;;;;;;16.60;51.86;98000.44;2080456;28;20602;-64
2022/11/12 09:38:43;;;;;;;7.75;4.20;;;;;;;16.71;52.20;98002.56;2080445;28;20665;-64
2022/11/12 09:39:44;;;;;;;7.60;3.67;;;;;;;17.15;51.68;98006.63;2080873;28;20224;-64
2022/11/12 09:40:50;;;;;;;5.32;3.20;;;;;;;17.27;51.13;98013.09;2078808;28;20225;-64
2022/11/12 09:41:52;;;;;;;4.60;2.97;;;;;;;16.84;52.90;98009.91;2079765;28;20207;-64
2022/11/12 09:42:59;;;;;;;5.82;3.88;;;;;;;17.02;53.30;98003.75;2078261;28;20564;-64
2022/11/12 09:44:04;;;;;;;5.50;4.38;;;;;;;17.87;50.70;98010.00;2076217;28;20217;-64
2022/11/12 09:45:31;;;;;;;7.40;3.92;;;;;;;17.81;50.62;98005.03;2077040;28;20650;-64
2022/11/12 09:46:33;;;;;;;6.03;4.07;;;;;;;17.23;51.83;98008.88;2073569;28;20243;-64
2022/11/12 09:47:42;;;;;;;6.32;3.53;;;;;;;17.56;52.14;98016.00;2079396;28;20303;-64
2022/11/12 09:48:51;;;;;;;9.52;5.00;;;;;;;18.49;50.00;98012.00;2079305;28;20290;-66
2022/11/12 09:50:02;;;;;;;7.00;5.05;;;;;;;18.72;49.35;98009.88;2079958;28;20228;-65
2022/11/12 09:51:16;;;;;;;6.72;4.57;;;;;;;18.40;49.31;98002.78;2082150;28;20227;-66
2022/11/12 09:52:27;;;;;;;10.27;5.10;;;;;;;18.07;50.00;98010.78;2082094;28;20244;-65
2022/11/12 09:53:38;;;;;;;13.40;5.13;;;;;;;18.59;49.39;98009.72;2082891;28;20236;-65
2022/11/12 09:54:49;;;;;;;10.13;6.20;;;;;;;18.84;48.65;98013.63;2080004;28;20288;-63
2022/11/12 09:55:51;;;;;;;15.18;6.55;;;;;;;19.28;48.45;98007.59;2080762;28;20283;-62
2022/11/12 09:56:53;;;;;;;12.80;6.85;;;;;;;19.68;47.92;97994.63;2081014;28;20704;-63
2022/11/12 09:57:59;;;;;;;16.17;7.90;;;;;;;20.26;45.92;98004.44;2084842;28;20941;-63
2022/11/12 09:59:01;;;;;;;17.85;9.13;;;;;;;19.94;46.24;97986.06;2081304;28;20351;-62
2022/11/12 10:00:12;;;;;;;11.98;6.93;;;;;;;19.54;46.97;97981.34;2077779;28;20200;-63
2022/11/12 10:01:23;;;;;;;14.77;7.88;;;;;;;19.75;47.05;98008.34;2077265;28;20229;-63
2022/11/12 10:02:53;;;;;;;12.45;7.57;;;;;;;19.67;47.81;97998.22;2085483;28;20728;-63
2022/11/12 10:04:21;;;;;;;8.35;4.85;;;;;;;17.68;51.38;98002.19;2082324;28;20283;-63
2022/11/12 10:05:28;;;;;;;8.00;4.70;;;;;;;18.83;49.48;98001.31;2082705;28;20197;-63
2022/11/12 10:06:39;;;;;;;7.60;4.60;;;;;;;18.87;48.80;98006.38;2079344;28;20235;-63
2022/11/12 10:07:55;;;;;;;7.95;4.57;;;;;;;19.66;48.58;98001.81;2082018;28;20269;-62
2022/11/12 10:09:20;;;;;;;11.73;4.25;;;;;;;20.77;45.60;97998.56;2078033;28;20201;-63
2022/11/12 10:10:35;;;;;;;9.13;4.88;;;;;;;17.65;50.07;97999.72;2081190;28;20338;-63
2022/11/12 10:12:32;;;;;;;5.72;3.25;;;;;;;17.11;51.05;97999.78;2082706;28;20200;-63
2022/11/12 10:13:49;;;;;;;4.53;1.77;;;;;;;17.49;50.21;97998.78;2081664;28;20220;-62
2022/11/12 10:14:54;;;;;;;5.68;3.20;;;;;;;17.48;51.04;98003.22;2083642;28;20242;-62
2022/11/12 10:16:41;;;;;;;6.93;3.90;;;;;;;15.75;56.71;97991.09;2080108;28;20208;-63
2022/11/12 10:18:05;;;;;;;5.38;3.60;;;;;;;15.63;57.06;98000.41;2086404;28;20244;-62
2022/11/12 10:19:20;;;;;;;3.65;2.70;;;;;;;16.41;53.85;98000.44;2082679;28;20889;-62
2022/11/12 10:20:28;;;;;;;4.28;2.67;;;;;;;17.93;52.22;98004.44;2082333;28;20643;-62
2022/11/12 10:22:01;;;;;;;3.10;2.08;;;;;;;18.25;51.00;98006.28;2076207;28;20209;-62
2022/11/12 10:23:14;;;;;;;4.95;2.65;;;;;;;19.17;50.22;98000.28;2082450;28;20247;-62
2022/11/12 10:24:15;;;;;;;3.33;2.15;;;;;;;20.00;49.11;97997.13;2082075;28;20208;-63
2022/11/12 10:25:18;;;;;;;3.55;2.10;;;;;;;20.50;47.09;97981.63;2081630;28;20203;-63
2022/11/12 10:26:23;;;;;;;2.35;1.55;;;;;;;20.63;46.37;98002.09;2078932;28;20581;-62
2022/11/12 10:27:35;;;;;;;5.53;1.80;;;;;;;20.75;47.24;98005.78;2082738;28;20224;-63
2022/11/12 10:28:45;;;;;;;3.20;2.00;;;;;;;20.99;46.68;98001.53;2079069;28;20663;-63
2022/11/12 10:29:56;;;;;;;6.72;2.70;;;;;;;20.69;46.99;97997.22;2077447;28;20301;-63
2022/11/12 10:31:09;;;;;;;11.77;3.75;;;;;;;19.37;49.13;98001.75;2080991;28;20254;-62
2022/11/12 10:32:14;;;;;;;6.25;3.40;;;;;;;20.50;48.19;98002.03;2078788;28;20228;-62
2022/11/12 10:33:15;;;;;;;3.90;1.80;;;;;;;21.58;46.44;97999.47;2079848;28;20205;-63
2022/11/12 10:34:22;;;;;;;4.88;2.35;;;;;;;22.21;45.40;97995.09;2083790;28;20204;-63
2022/11/12 10:35:23;;;;;;;3.03;1.77;;;;;;;22.12;45.43;98003.72;2078961;28;20308;-63
2022/11/12 10:36:32;;;;;;;4.55;1.85;;;;;;;22.36;45.04;97993.16;2083783;28;20311;-62
2022/11/12 10:37:40;;;;;;;1.90;1.40;;;;;;;22.25;45.15;97983.25;2082966;28;20248;-63
2022/11/12 10:38:46;;;;;;;6.07;2.25;;;;;;;23.05;43.69;97981.94;2078630;28;20225;-63
2022/11/12 10:39:48;;;;;;;2.95;1.60;;;;;;;22.99;43.40;97985.94;2084031;28;20197;-62
2022/11/12 10:40:49;;;;;;;9.52;3.70;;;;;;;22.78;43.12;97982.19;2077633;28;20228;-63
2022/11/12 10:42:05;;;;;;;4.85;2.58;;;;;;;23.43;42.44;97993.38;2085668;28;20694;-65
2022/11/12 10:43:20;;;;;;;8.50;2.42;;;;;;;23.41;42.17;97992.66;2083484;28;20294;-65
2022/11/12 10:44:26;;;;;;;3.15;2.05;;;;;;;23.17;42.99;97998.84;2080096;28;20320;-65
2022/11/12 10:45:28;;;;;;;8.55;2.42;;;;;;;23.23;42.86;97994.88;2079759;28;20288;-65
2022/11/12 10:46:36;;;;;;;2.85;1.80;;;;;;;22.41;43.39;97987.50;2079268;28;20662;-65
2022/11/12 10:47:41;;;;;;;2.75;1.60;;;;;;;22.82;43.47;97994.31;2079512;28;20255;-65
2022/11/12 10:48:53;;;;;;;6.38;2.40;;;;;;;23.15;42.96;97987.47;2083445;28;20201;-65
2022/11/12 10:50:32;;;;;;;4.50;2.50;;;;;;;22.91;43.33;97987.47;2082125;28;20201;-65
2022/11/12 10:51:36;;;;;;;4.18;2.10;;;;;;;23.18;41.84;97981.91;2080306;28;20196;-65
2022/11/12 10:52:37;;;;;;;3.03;1.67;;;;;;;23.13;41.98;97984.03;2082166;28;20216;-65
2022/11/12 10:53:39;;;;;;;3.92;1.55;;;;;;;23.19;42.17;97985.44;2078356;28;20332;-65
2022/11/12 10:54:40;;;;;;;3.53;2.13;;;;;;;22.81;42.68;97988.13;2079158;28;20201;-65
2022/11/12 10:55:56;;;;;;;5.25;2.05;;;;;;;22.81;42.33;97982.78;2082825;28;20235;-65
2022/11/12 10:57:19;;;;;;;13.15;2.58;;;;;;;22.20;43.26;97980.09;2081801;28;20282;-66
2022/11/12 10:58:20;;;;;;;3.65;1.70;;;;;;;22.34;43.64;97981.75;2083349;28;20221;-66
2022/11/12 10:59:23;;;;;;;4.70;1.60;;;;;;;22.11;43.70;97960.31;2085344;28;20239;-65
2022/11/12 11:00:36;;;;;;;2.20;1.52;;;;;;;22.09;43.86;97978.16;2081213;28;20247;-65
2022/11/12 11:01:38;;;;;;;2.78;1.65;;;;;;;21.31;44.52;97969.31;2081014;28;20631;-64
2022/11/12 11:02:50;;;;;;;4.70;1.70;;;;;;;21.37;45.03;97991.97;2077788;28;20227;-64
2022/11/12 11:03:56;;;;;;;4.57;1.65;;;;;;;21.72;44.46;97982.56;2081964;28;20203;-64
2022/11/12 11:04:58;;;;;;;2.00;1.48;;;;;;;21.48;43.67;97977.94;2079836;28;20220;-64
2022/11/12 11:06:06;;;;;;;4.45;1.80;;;;;;;18.85;48.47;97978.28;2083360;28;20288;-63
2022/11/12 11:07:23;;;;;;;5.07;2.47;;;;;;;18.85;49.27;97971.19;2080389;28;20212;-64
2022/11/12 11:08:34;;;;;;;6.18;2.75;;;;;;;17.93;50.05;97977.13;2071549;28;20201;-64
2022/11/12 11:09:50;;;;;;;9.30;3.50;;;;;;;17.68;51.65;97967.00;2074515;28;20281;-64
2022/11/12 11:11:09;;;;;;;3.08;1.77;;;;;;;17.60;52.70;97981.47;2078830;28;20289;-64
2022/11/12 11:12:32;;;;;;;9.73;2.50;;;;;;;18.42;51.82;97985.06;2081904;28;20267;-63
2022/11/12 11:13:33;;;;;;;3.97;1.60;;;;;;;19.99;48.44;97978.69;2084365;28;20243;-63
2022/11/12 11:14:35;;;;;;;5.60;2.40;;;;;;;20.56;47.16;97977.75;2083388;28;20285;-63
2022/11/12 11:15:37;;;;;;;5.13;2.53;;;;;;;20.93;46.13;97975.38;2079196;28;20189;-63
2022/11/12 11:16:49;;;;;;;7.20;2.17;;;;;;;21.12;43.72;97971.50;2079177;28;20196;-64
2022/11/12 11:17:51;;;;;;;6.70;3.25;;;;;;;21.91;42.19;97968.84;2078571;28;20221;-64
2022/11/12 11:18:58;;;;;;;3.00;1.33;;;;;;;18.21;47.16;97971.22;2083091;28;20220;-64
2022/11/12 11:20:01;;;;;;;2.30;1.30;;;;;;;16.35;52.53;97955.09;2081216;28;20224;-63
2022/11/12 11:21:11;;;;;;;2.20;1.13;;;;;;;15.86;53.77;97968.72;2081702;28;20691;-63
2022/11/12 11:22:22;;;;;;;3.35;1.30;;;;;;;16.02;53.36;97968.91;2082094;28;20200;-63
2022/11/12 11:23:30;;;;;;;6.35;1.65;;;;;;;15.41;55.16;97966.25;2081209;28;20323;-63
2022/11/12 11:24:40;;;;;;;4.60;1.80;;;;;;;15.76;53.65;97961.22;2081434;28;20691;-65
2022/11/12 11:25:42;;;;;;;7.38;2.55;;;;;;;15.50;55.10;97968.50;2080631;28;20241;-65
2022/11/12 11:26:55;;;;;;;3.38;2.10;;;;;;;17.51;51.98;97965.22;2079819;28;20255;-65
2022/11/12 11:28:26;;;;;;;2.15;1.13;;;;;;;18.79;47.43;97960.09;2081163;28;20236;-65
2022/11/12 11:29:34;;;;;;;5.78;1.63;;;;;;;18.84;46.77;97960.69;2081644;28;20207;-65
2022/11/12 11:30:44;;;;;;;2.72;1.40;;;;;;;18.66;48.62;97944.94;2081405;28;20204;-65
2022/11/12 11:31:59;;;;;;;3.22;1.15;;;;;;;19.96;46.50;97957.66;2076329;28;20336;-65
2022/11/12 11:33:24;;;;;;;3.35;1.25;;;;;;;19.68;45.12;97952.25;2076427;28;20295;-65
2022/11/12 11:34:34;;;;;;;4.68;1.10;;;;;;;18.92;46.84;97953.22;2079069;28;20335;-65
2022/11/12 11:36:04;;;;;;;5.65;1.38;;;;;;;17.61;50.35;97958.53;2083816;28;20189;-65
2022/11/12 11:37:14;;;;;;;2.55;1.55;;;;;;;18.20;50.74;97956.28;2078656;28;20284;-65
2022/11/12 11:38:27;;;;;;;5.75;1.88;;;;;;;19.09;49.82;97962.81;2081722;28;20307;-65
2022/11/12 11:39:44;;;;;;;3.22;1.40;;;;;;;18.08;51.94;97951.66;2077535;28;20203;-65
2022/11/12 11:41:30;;;;;;;2.67;1.60;;;;;;;18.32;51.06;97960.06;2078338;28;20201;-65
2022/11/12 11:42:43;;;;;;;5.20;1.80;;;;;;;18.30;50.37;97964.59;2059374;28;20779;-65
2022/11/12 11:43:54;;;;;;;2.20;1.40;;;;;;;18.19;49.33;97959.88;2063305;28;20552;-65
2022/11/12 11:45:16;;;;;;;2.80;1.40;;;;;;;17.84;50.36;97953.81;2079619;28;20682;-65
2022/11/12 11:46:35;;;;;;;2.20;1.45;;;;;;;18.54;49.66;97953.59;2080053;28;20196;-65
2022/11/12 11:48:20;;;;;;;7.68;3.25;;;;;;;18.83;51.66;97951.91;2079538;28;20267;-65
2022/11/12 11:49:30;;;;;;;3.63;2.55;;;;;;;19.38;51.29;97958.44;2080187;28;20660;-65
2022/11/12 11:50:45;;;;;;;6.28;3.00;;;;;;;19.90;50.28;97949.13;2080783;28;20332;-65
2022/11/12 11:52:12;;;;;;;15.65;2.42;;;;;;;19.73;50.03;97950.16;2081486;28;20247;-65
2022/11/12 11:53:25;;;;;;;3.88;2.35;;;;;;;20.05;49.38;97947.34;2080112;28;20680;-65
2022/11/12 11:54:54;;;;;;;4.10;2.38;;;;;;;20.23;49.15;97947.97;2077133;28;20597;-65
2022/11/12 11:56:06;;;;;;;5.10;2.90;;;;;;;20.51;48.57;97950.66;2079748;28;20670;-65
2022/11/12 11:57:21;;;;;;;6.95;3.47;;;;;;;20.68;48.30;97946.91;2078728;28;20319;-65
2022/11/12 11:59:02;;;;;;;3.75;3.00;;;;;;;20.31;49.19;97925.41;2079385;28;20709;-65
2022/11/12 12:00:10;;;;;;;8.07;3.50;;;;;;;20.40;49.25;97946.03;2081129;28;20199;-65
2022/11/12 12:01:16;;;;;;;5.88;3.13;;;;;;;20.42;49.23;97935.31;2088105;28;20196;-65
2022/11/12 12:02:55;;;;;;;6.82;3.20;;;;;;;20.44;49.33;97942.22;2084518;28;20255;-66
2022/11/12 12:04:15;;;;;;;5.80;3.58;;;;;;;20.32;49.71;97946.53;2086178;28;20284;-66
2022/11/12 12:05:43;;;;;;;14.05;4.15;;;;;;;20.71;48.58;97941.44;2085866;28;20234;-65
2022/11/12 12:06:56;;;;;;;4.43;3.10;;;;;;;20.92;48.48;97947.13;2083005;28;20197;-65
2022/11/12 12:08:20;;;;;;;5.30;3.10;;;;;;;21.11;47.87;97941.44;2080895;28;20220;-65
2022/11/12 12:09:59;;;;;;;5.05;3.00;;;;;;;21.23;47.95;97930.94;2079361;28;20206;-65
2022/11/12 12:11:18;;;;;;;7.53;3.33;;;;;;;20.99;48.07;97929.00;2072445;28;20255;-65
2022/11/12 12:12:43;;;;;;;5.25;3.47;;;;;;;21.27;47.59;97943.03;2072349;28;20301;-66
2022/11/12 12:13:53;;;;;;;5.93;3.42;;;;;;;21.32;47.92;97949.78;2082475;28;20196;-65
2022/11/12 12:15:05;;;;;;;7.75;4.15;;;;;;;21.23;48.16;97936.25;2087023;28;20304;-65
2022/11/12 12:16:16;;;;;;;8.98;3.80;;;;;;;20.97;48.78;97941.53;2085445;28;20326;-66
2022/11/12 12:17:23;;;;;;;8.27;3.47;;;;;;;20.62;49.95;97942.88;2078271;28;20214;-66
2022/11/12 12:18:52;;;;;;;6.97;3.90;;;;;;;20.62;49.93;97931.38;2084004;28;20193;-66
2022/11/12 12:20:03;;;;;;;6.40;3.67;;;;;;;20.99;49.23;97939.63;2083490;28;20691;-65
2022/11/12 12:21:10;;;;;;;8.00;4.30;;;;;;;20.98;49.08;97922.00;2083988;28;20559;-65
2022/11/12 12:22:17;;;;;;;5.93;3.55;;;;;;;21.16;48.53;97923.38;2082578;28;20725;-66
2022/11/12 12:23:24;;;;;;;8.73;4.10;;;;;;;20.89;49.16;97936.72;2081486;28;20360;-65
2022/11/12 12:24:30;;;;;;;7.05;4.10;;;;;;;20.86;49.27;97939.56;2081324;28;20267;-65
2022/11/12 12:25:36;;;;;;;6.57;4.60;;;;;;;20.46;50.25;97918.28;2082868;28;20630;-66
2022/11/12 12:26:59;;;;;;;9.52;4.22;;;;;;;20.15;50.91;97928.19;2083291;28;20235;-66
2022/11/12 12:28:29;;;;;;;6.07;3.95;;;;;;;19.92;51.37;97930.47;2083646;28;20676;-66
2022/11/12 12:29:48;;;;;;;6.35;4.57;;;;;;;19.99;51.38;97926.50;2058487;28;20249;-65
2022/11/12 12:30:54;;;;;;;6.32;4.18;;;;;;;19.65;52.03;97930.38;2078916;28;20240;-66
2022/11/12 12:32:05;;;;;;;10.00;4.57;;;;;;;19.00;52.81;97905.97;2084057;28;20232;-65
2022/11/12 12:33:09;;;;;;;7.35;4.40;;;;;;;18.80;53.95;97933.56;2081640;28;20232;-66
2022/11/12 12:34:22;;;;;;;6.32;4.80;;;;;;;18.36;54.95;97919.28;2079300;28;20288;-65
2022/11/12 12:35:30;;;;;;;7.00;4.47;;;;;;;18.75;54.68;97930.31;2079520;28;20201;-65
2022/11/12 12:36:40;;;;;;;12.88;5.40;;;;;;;18.61;54.65;97923.19;2080004;28;20639;-66
2022/11/12 12:37:56;;;;;;;7.82;4.55;;;;;;;18.43;54.80;97927.72;2080394;28;20228;-65
2022/11/12 12:39:16;;;;;;;5.95;4.40;;;;;;;18.42;54.63;97931.31;2083988;28;20241;-66
2022/11/12 12:40:29;;;;;;;7.85;4.63;;;;;;;18.26;55.11;97928.69;2082918;28;20827;-65
2022/11/12 12:42:03;;;;;;;8.73;5.00;;;;;;;18.12;55.47;97940.03;2079149;28;20228;-65
2022/11/12 12:43:21;;;;;;;16.55;5.05;;;;;;;18.31;55.85;97929.28;2081635;28;20213;-65
2022/11/12 12:44:58;;;;;;;6.80;4.90;;;;;;;18.16;55.85;97922.19;2082112;28;20833;-65